sensor_id;sensor_type;location;lat;lon;timestamp;temperature;humidity
45693;DHT22;31402;44.752;-0.374;2022-12-07T00:01:09;9.50;96.60
45693;DHT22;31402;44.752;-0.374;2022-12-07T00:03:36;9.50;96.30
45693;DHT22;31402;44.752;-0.374;2022-12-07T00:06:03;9.50;96.20
45693;DHT22;31402;44.752;-0.374;2022-12-07T00:08:30;9.60;96.20
45693;DHT22;31402;44.752;-0.374;2022-12-07T00:11:01;9.60;96.10
45693;DHT22;31402;44.752;-0.374;2022-12-07T00:13:27;9.60;96.00
45693;DHT22;31402;44.752;-0.374;2022-12-07T00:15:53;9.40;96.10
45693;DHT22;31402;44.752;-0.374;2022-12-07T00:18:19;9.40;96.20
45693;DHT22;31402;44.752;-0.374;2022-12-07T00:20:44;9.40;96.10
45693;DHT22;31402;44.752;-0.374;2022-12-07T00:23:10;9.40;96.20
45693;DHT22;31402;44.752;-0.374;2022-12-07T00:25:36;9.40;96.10
45693;DHT22;31402;44.752;-0.374;2022-12-07T00:28:02;9.50;95.90
45693;DHT22;31402;44.752;-0.374;2022-12-07T00:30:27;9.50;95.70
45693;DHT22;31402;44.752;-0.374;2022-12-07T00:32:53;9.30;95.90
45693;DHT22;31402;44.752;-0.374;2022-12-07T00:35:19;9.20;96.00
45693;DHT22;31402;44.752;-0.374;2022-12-07T00:37:45;9.10;96.30
45693;DHT22;31402;44.752;-0.374;2022-12-07T00:40:11;9.10;96.50
45693;DHT22;31402;44.752;-0.374;2022-12-07T00:42:37;9.00;96.50
45693;DHT22;31402;44.752;-0.374;2022-12-07T00:45:03;9.00;96.40
45693;DHT22;31402;44.752;-0.374;2022-12-07T00:47:28;9.00;96.40
45693;DHT22;31402;44.752;-0.374;2022-12-07T00:49:54;9.00;96.30
45693;DHT22;31402;44.752;-0.374;2022-12-07T00:52:20;9.00;96.40
45693;DHT22;31402;44.752;-0.374;2022-12-07T00:54:46;9.00;96.20
45693;DHT22;31402;44.752;-0.374;2022-12-07T00:57:11;8.90;96.20
45693;DHT22;31402;44.752;-0.374;2022-12-07T00:59:37;8.90;96.30
45693;DHT22;31402;44.752;-0.374;2022-12-07T01:02:03;8.80;96.30
45693;DHT22;31402;44.752;-0.374;2022-12-07T01:04:28;8.90;96.30
45693;DHT22;31402;44.752;-0.374;2022-12-07T01:06:55;9.00;96.10
45693;DHT22;31402;44.752;-0.374;2022-12-07T01:09:20;9.00;95.80
45693;DHT22;31402;44.752;-0.374;2022-12-07T01:11:46;8.90;95.90
45693;DHT22;31402;44.752;-0.374;2022-12-07T01:14:12;8.90;95.80
45693;DHT22;31402;44.752;-0.374;2022-12-07T01:16:38;8.80;95.80
45693;DHT22;31402;44.752;-0.374;2022-12-07T01:19:04;8.60;96.00
45693;DHT22;31402;44.752;-0.374;2022-12-07T01:21:35;8.60;96.10
45693;DHT22;31402;44.752;-0.374;2022-12-07T01:24:04;8.50;96.10
45693;DHT22;31402;44.752;-0.374;2022-12-07T01:26:30;8.50;96.20
45693;DHT22;31402;44.752;-0.374;2022-12-07T01:28:56;8.40;96.10
45693;DHT22;31402;44.752;-0.374;2022-12-07T01:31:25;8.40;96.10
45693;DHT22;31402;44.752;-0.374;2022-12-07T01:33:54;8.30;96.20
45693;DHT22;31402;44.752;-0.374;2022-12-07T01:36:23;8.30;96.10
45693;DHT22;31402;44.752;-0.374;2022-12-07T01:38:51;8.20;96.30
45693;DHT22;31402;44.752;-0.374;2022-12-07T01:41:18;8.10;96.40
45693;DHT22;31402;44.752;-0.374;2022-12-07T01:44:08;7.80;96.60
45693;DHT22;31402;44.752;-0.374;2022-12-07T01:46:34;7.80;96.70
45693;DHT22;31402;44.752;-0.374;2022-12-07T01:49:00;7.70;96.70
45693;DHT22;31402;44.752;-0.374;2022-12-07T01:51:27;7.70;96.70
45693;DHT22;31402;44.752;-0.374;2022-12-07T01:53:54;7.70;96.80
45693;DHT22;31402;44.752;-0.374;2022-12-07T01:56:24;7.70;96.90
45693;DHT22;31402;44.752;-0.374;2022-12-07T01:58:52;7.80;96.80
45693;DHT22;31402;44.752;-0.374;2022-12-07T02:01:20;7.90;96.50
45693;DHT22;31402;44.752;-0.374;2022-12-07T02:03:47;7.90;96.60
45693;DHT22;31402;44.752;-0.374;2022-12-07T02:06:17;7.80;96.60
45693;DHT22;31402;44.752;-0.374;2022-12-07T02:08:45;7.60;96.70
45693;DHT22;31402;44.752;-0.374;2022-12-07T02:11:11;7.60;97.00
45693;DHT22;31402;44.752;-0.374;2022-12-07T02:13:39;7.60;96.80
45693;DHT22;31402;44.752;-0.374;2022-12-07T02:16:24;7.70;96.50
45693;DHT22;31402;44.752;-0.374;2022-12-07T02:21:29;7.80;96.50
45693;DHT22;31402;44.752;-0.374;2022-12-07T02:32:11;7.60;96.70
45693;DHT22;31402;44.752;-0.374;2022-12-07T02:34:50;7.60;96.50
45693;DHT22;31402;44.752;-0.374;2022-12-07T02:38:00;7.50;96.50
45693;DHT22;31402;44.752;-0.374;2022-12-07T02:40:48;7.40;96.70
45693;DHT22;31402;44.752;-0.374;2022-12-07T02:43:25;7.20;96.90
45693;DHT22;31402;44.752;-0.374;2022-12-07T02:45:54;7.10;97.10
45693;DHT22;31402;44.752;-0.374;2022-12-07T02:48:22;7.00;97.30
45693;DHT22;31402;44.752;-0.374;2022-12-07T02:50:52;6.90;97.50
45693;DHT22;31402;44.752;-0.374;2022-12-07T02:53:38;6.80;97.60
45693;DHT22;31402;44.752;-0.374;2022-12-07T03:02:21;6.70;98.10
45693;DHT22;31402;44.752;-0.374;2022-12-07T03:13:42;6.60;98.20
45693;DHT22;31402;44.752;-0.374;2022-12-07T03:19:06;6.20;98.70
45693;DHT22;31402;44.752;-0.374;2022-12-07T03:22:00;6.20;98.80
45693;DHT22;31402;44.752;-0.374;2022-12-07T03:24:32;6.40;98.90
45693;DHT22;31402;44.752;-0.374;2022-12-07T03:27:18;6.50;98.60
45693;DHT22;31402;44.752;-0.374;2022-12-07T03:30:21;6.60;98.40
45693;DHT22;31402;44.752;-0.374;2022-12-07T03:33:03;6.50;98.30
45693;DHT22;31402;44.752;-0.374;2022-12-07T03:35:40;6.50;98.20
45693;DHT22;31402;44.752;-0.374;2022-12-07T03:38:17;6.30;98.60
45693;DHT22;31402;44.752;-0.374;2022-12-07T03:43:34;6.30;98.70
45693;DHT22;31402;44.752;-0.374;2022-12-07T03:56:47;6.70;98.10
45693;DHT22;31402;44.752;-0.374;2022-12-07T03:59:14;6.70;98.00
45693;DHT22;31402;44.752;-0.374;2022-12-07T04:01:45;6.80;97.90
45693;DHT22;31402;44.752;-0.374;2022-12-07T04:04:17;6.80;97.70
45693;DHT22;31402;44.752;-0.374;2022-12-07T04:06:43;6.80;97.70
45693;DHT22;31402;44.752;-0.374;2022-12-07T04:09:09;6.70;97.80
45693;DHT22;31402;44.752;-0.374;2022-12-07T04:11:34;6.60;98.10
45693;DHT22;31402;44.752;-0.374;2022-12-07T04:14:00;6.60;97.90
45693;DHT22;31402;44.752;-0.374;2022-12-07T04:16:49;6.60;98.10
45693;DHT22;31402;44.752;-0.374;2022-12-07T04:19:16;6.30;98.30
45693;DHT22;31402;44.752;-0.374;2022-12-07T04:21:42;6.40;98.40
45693;DHT22;31402;44.752;-0.374;2022-12-07T04:24:08;6.20;98.30
45693;DHT22;31402;44.752;-0.374;2022-12-07T04:26:35;6.20;98.50
45693;DHT22;31402;44.752;-0.374;2022-12-07T04:29:01;6.20;98.60
45693;DHT22;31402;44.752;-0.374;2022-12-07T04:31:26;6.00;99.00
45693;DHT22;31402;44.752;-0.374;2022-12-07T04:33:52;6.00;99.00
45693;DHT22;31402;44.752;-0.374;2022-12-07T04:36:18;5.90;99.00
45693;DHT22;31402;44.752;-0.374;2022-12-07T04:38:45;6.00;99.10
45693;DHT22;31402;44.752;-0.374;2022-12-07T04:41:11;6.00;99.00
45693;DHT22;31402;44.752;-0.374;2022-12-07T04:43:37;6.20;98.80
45693;DHT22;31402;44.752;-0.374;2022-12-07T04:46:03;6.30;98.60
45693;DHT22;31402;44.752;-0.374;2022-12-07T04:48:29;6.30;98.50
45693;DHT22;31402;44.752;-0.374;2022-12-07T04:50:55;6.20;98.60
45693;DHT22;31402;44.752;-0.374;2022-12-07T04:53:20;6.40;98.70
45693;DHT22;31402;44.752;-0.374;2022-12-07T04:55:46;6.50;98.10
45693;DHT22;31402;44.752;-0.374;2022-12-07T04:58:13;6.40;98.10
45693;DHT22;31402;44.752;-0.374;2022-12-07T05:00:40;6.40;98.20
45693;DHT22;31402;44.752;-0.374;2022-12-07T05:03:06;6.30;98.30
45693;DHT22;31402;44.752;-0.374;2022-12-07T05:05:32;6.30;97.90
45693;DHT22;31402;44.752;-0.374;2022-12-07T05:07:58;6.40;97.80
45693;DHT22;31402;44.752;-0.374;2022-12-07T05:10:24;6.50;97.60
45693;DHT22;31402;44.752;-0.374;2022-12-07T05:12:49;6.50;97.50
45693;DHT22;31402;44.752;-0.374;2022-12-07T05:15:15;6.50;97.50
45693;DHT22;31402;44.752;-0.374;2022-12-07T05:17:42;6.30;97.70
45693;DHT22;31402;44.752;-0.374;2022-12-07T05:20:08;6.40;97.90
45693;DHT22;31402;44.752;-0.374;2022-12-07T05:22:34;6.20;98.00
45693;DHT22;31402;44.752;-0.374;2022-12-07T05:25:01;6.20;98.10
45693;DHT22;31402;44.752;-0.374;2022-12-07T05:27:26;6.20;98.00
45693;DHT22;31402;44.752;-0.374;2022-12-07T05:29:52;6.20;98.00
45693;DHT22;31402;44.752;-0.374;2022-12-07T05:32:19;6.20;98.00
45693;DHT22;31402;44.752;-0.374;2022-12-07T05:34:45;6.20;98.10
45693;DHT22;31402;44.752;-0.374;2022-12-07T05:37:11;6.10;98.30
45693;DHT22;31402;44.752;-0.374;2022-12-07T05:39:36;6.10;98.20
45693;DHT22;31402;44.752;-0.374;2022-12-07T05:42:06;6.00;98.40
45693;DHT22;31402;44.752;-0.374;2022-12-07T05:44:42;6.00;98.80
45693;DHT22;31402;44.752;-0.374;2022-12-07T05:47:09;6.00;98.80
45693;DHT22;31402;44.752;-0.374;2022-12-07T05:49:35;6.00;98.80
45693;DHT22;31402;44.752;-0.374;2022-12-07T05:52:01;6.00;98.80
45693;DHT22;31402;44.752;-0.374;2022-12-07T05:54:27;6.10;98.60
45693;DHT22;31402;44.752;-0.374;2022-12-07T05:56:53;6.00;98.70
45693;DHT22;31402;44.752;-0.374;2022-12-07T05:59:19;6.10;99.00
45693;DHT22;31402;44.752;-0.374;2022-12-07T06:01:53;6.30;99.40
45693;DHT22;31402;44.752;-0.374;2022-12-07T06:04:20;6.40;99.40
45693;DHT22;31402;44.752;-0.374;2022-12-07T06:06:46;6.50;99.30
45693;DHT22;31402;44.752;-0.374;2022-12-07T06:09:12;6.50;99.10
45693;DHT22;31402;44.752;-0.374;2022-12-07T06:11:39;6.50;99.40
45693;DHT22;31402;44.752;-0.374;2022-12-07T06:14:23;6.40;99.80
45693;DHT22;31402;44.752;-0.374;2022-12-07T06:16:49;6.40;99.70
45693;DHT22;31402;44.752;-0.374;2022-12-07T06:19:15;6.50;99.90
45693;DHT22;31402;44.752;-0.374;2022-12-07T06:21:42;6.50;99.50
45693;DHT22;31402;44.752;-0.374;2022-12-07T06:24:10;6.50;99.40
45693;DHT22;31402;44.752;-0.374;2022-12-07T06:26:37;6.30;99.50
45693;DHT22;31402;44.752;-0.374;2022-12-07T06:29:02;6.40;99.80
45693;DHT22;31402;44.752;-0.374;2022-12-07T06:31:28;6.50;99.50
45693;DHT22;31402;44.752;-0.374;2022-12-07T06:33:59;6.20;98.70
45693;DHT22;31402;44.752;-0.374;2022-12-07T06:36:24;6.20;99.10
45693;DHT22;31402;44.752;-0.374;2022-12-07T06:38:50;6.20;99.60
45693;DHT22;31402;44.752;-0.374;2022-12-07T06:41:16;6.40;99.10
45693;DHT22;31402;44.752;-0.374;2022-12-07T06:43:42;6.40;98.40
45693;DHT22;31402;44.752;-0.374;2022-12-07T06:46:07;6.40;98.50
45693;DHT22;31402;44.752;-0.374;2022-12-07T06:48:33;6.20;98.20
45693;DHT22;31402;44.752;-0.374;2022-12-07T06:50:59;6.30;98.70
45693;DHT22;31402;44.752;-0.374;2022-12-07T06:53:25;6.20;98.40
45693;DHT22;31402;44.752;-0.374;2022-12-07T06:55:51;6.20;98.50
45693;DHT22;31402;44.752;-0.374;2022-12-07T06:58:17;6.30;98.20
45693;DHT22;31402;44.752;-0.374;2022-12-07T07:00:44;6.40;97.70
45693;DHT22;31402;44.752;-0.374;2022-12-07T07:03:10;6.40;97.70
45693;DHT22;31402;44.752;-0.374;2022-12-07T07:05:35;6.30;97.90
45693;DHT22;31402;44.752;-0.374;2022-12-07T07:08:01;6.30;97.90
45693;DHT22;31402;44.752;-0.374;2022-12-07T07:10:28;6.30;97.80
45693;DHT22;31402;44.752;-0.374;2022-12-07T07:12:54;6.20;98.00
45693;DHT22;31402;44.752;-0.374;2022-12-07T07:15:19;6.30;97.90
45693;DHT22;31402;44.752;-0.374;2022-12-07T07:17:45;6.20;98.00
45693;DHT22;31402;44.752;-0.374;2022-12-07T07:20:11;6.30;98.00
45693;DHT22;31402;44.752;-0.374;2022-12-07T07:22:37;6.30;97.70
45693;DHT22;31402;44.752;-0.374;2022-12-07T07:25:03;6.10;97.80
45693;DHT22;31402;44.752;-0.374;2022-12-07T07:27:29;6.10;98.00
45693;DHT22;31402;44.752;-0.374;2022-12-07T07:29:55;6.20;97.80
45693;DHT22;31402;44.752;-0.374;2022-12-07T07:32:20;6.30;97.60
45693;DHT22;31402;44.752;-0.374;2022-12-07T07:34:47;6.20;97.70
45693;DHT22;31402;44.752;-0.374;2022-12-07T07:37:13;6.10;97.80
45693;DHT22;31402;44.752;-0.374;2022-12-07T07:39:39;6.20;97.70
45693;DHT22;31402;44.752;-0.374;2022-12-07T07:42:05;6.10;97.80
45693;DHT22;31402;44.752;-0.374;2022-12-07T07:44:33;5.90;97.90
45693;DHT22;31402;44.752;-0.374;2022-12-07T07:46:59;6.00;97.90
45693;DHT22;31402;44.752;-0.374;2022-12-07T07:49:25;6.10;97.80
45693;DHT22;31402;44.752;-0.374;2022-12-07T07:51:51;6.00;97.90
45693;DHT22;31402;44.752;-0.374;2022-12-07T07:54:17;6.10;97.70
45693;DHT22;31402;44.752;-0.374;2022-12-07T07:56:42;6.00;97.60
45693;DHT22;31402;44.752;-0.374;2022-12-07T07:59:08;6.00;97.50
45693;DHT22;31402;44.752;-0.374;2022-12-07T08:01:34;6.00;97.40
45693;DHT22;31402;44.752;-0.374;2022-12-07T08:04:00;5.90;97.60
45693;DHT22;31402;44.752;-0.374;2022-12-07T08:06:26;5.90;97.60
45693;DHT22;31402;44.752;-0.374;2022-12-07T08:08:52;5.90;97.60
45693;DHT22;31402;44.752;-0.374;2022-12-07T08:11:18;5.90;97.70
45693;DHT22;31402;44.752;-0.374;2022-12-07T08:13:47;5.90;97.70
45693;DHT22;31402;44.752;-0.374;2022-12-07T08:16:13;6.00;97.60
45693;DHT22;31402;44.752;-0.374;2022-12-07T08:18:41;6.00;97.50
45693;DHT22;31402;44.752;-0.374;2022-12-07T08:21:09;5.90;97.60
45693;DHT22;31402;44.752;-0.374;2022-12-07T08:23:36;5.90;97.90
45693;DHT22;31402;44.752;-0.374;2022-12-07T08:26:03;6.00;97.80
45693;DHT22;31402;44.752;-0.374;2022-12-07T08:28:29;6.00;97.80
45693;DHT22;31402;44.752;-0.374;2022-12-07T08:31:06;6.00;97.70
45693;DHT22;31402;44.752;-0.374;2022-12-07T08:33:33;6.10;97.50
45693;DHT22;31402;44.752;-0.374;2022-12-07T08:36:07;6.10;97.40
45693;DHT22;31402;44.752;-0.374;2022-12-07T08:38:34;6.50;97.30
45693;DHT22;31402;44.752;-0.374;2022-12-07T08:41:00;6.90;98.00
45693;DHT22;31402;44.752;-0.374;2022-12-07T08:43:26;7.20;97.90
45693;DHT22;31402;44.752;-0.374;2022-12-07T08:46:18;7.30;98.30
45693;DHT22;31402;44.752;-0.374;2022-12-07T08:48:58;7.60;98.30
45693;DHT22;31402;44.752;-0.374;2022-12-07T08:51:24;7.80;98.00
45693;DHT22;31402;44.752;-0.374;2022-12-07T08:53:51;7.80;98.00
45693;DHT22;31402;44.752;-0.374;2022-12-07T08:56:18;7.90;98.00
45693;DHT22;31402;44.752;-0.374;2022-12-07T08:58:45;8.00;97.60
45693;DHT22;31402;44.752;-0.374;2022-12-07T09:01:11;8.00;98.00
45693;DHT22;31402;44.752;-0.374;2022-12-07T09:03:36;8.00;98.10
45693;DHT22;31402;44.752;-0.374;2022-12-07T09:06:02;7.90;98.00
45693;DHT22;31402;44.752;-0.374;2022-12-07T09:08:38;7.90;98.80
45693;DHT22;31402;44.752;-0.374;2022-12-07T09:11:05;7.90;98.20
45693;DHT22;31402;44.752;-0.374;2022-12-07T09:13:30;8.00;99.00
45693;DHT22;31402;44.752;-0.374;2022-12-07T09:15:56;8.20;97.40
45693;DHT22;31402;44.752;-0.374;2022-12-07T09:18:22;8.10;96.80
45693;DHT22;31402;44.752;-0.374;2022-12-07T09:20:49;8.10;96.90
45693;DHT22;31402;44.752;-0.374;2022-12-07T09:23:15;8.30;96.00
45693;DHT22;31402;44.752;-0.374;2022-12-07T09:25:41;8.30;95.90
45693;DHT22;31402;44.752;-0.374;2022-12-07T09:28:07;8.40;95.50
45693;DHT22;31402;44.752;-0.374;2022-12-07T09:30:32;8.60;95.40
45693;DHT22;31402;44.752;-0.374;2022-12-07T09:32:58;8.50;95.50
45693;DHT22;31402;44.752;-0.374;2022-12-07T09:35:25;8.60;95.50
45693;DHT22;31402;44.752;-0.374;2022-12-07T09:37:51;8.80;94.70
45693;DHT22;31402;44.752;-0.374;2022-12-07T09:40:20;8.80;94.60
45693;DHT22;31402;44.752;-0.374;2022-12-07T09:42:52;8.70;94.90
45693;DHT22;31402;44.752;-0.374;2022-12-07T09:45:32;8.90;94.30
45693;DHT22;31402;44.752;-0.374;2022-12-07T09:47:59;8.70;94.50
45693;DHT22;31402;44.752;-0.374;2022-12-07T09:50:27;8.80;94.20
45693;DHT22;31402;44.752;-0.374;2022-12-07T09:53:05;8.90;94.40
45693;DHT22;31402;44.752;-0.374;2022-12-07T09:55:33;9.00;94.20
45693;DHT22;31402;44.752;-0.374;2022-12-07T09:57:59;9.00;94.20
45693;DHT22;31402;44.752;-0.374;2022-12-07T10:00:25;9.10;94.10
45693;DHT22;31402;44.752;-0.374;2022-12-07T10:03:00;9.20;93.90
45693;DHT22;31402;44.752;-0.374;2022-12-07T10:05:31;9.30;93.90
45693;DHT22;31402;44.752;-0.374;2022-12-07T10:07:58;9.30;94.40
45693;DHT22;31402;44.752;-0.374;2022-12-07T10:10:31;9.40;94.00
45693;DHT22;31402;44.752;-0.374;2022-12-07T10:13:41;9.50;93.60
45693;DHT22;31402;44.752;-0.374;2022-12-07T10:15:56;9.60;93.70
45693;DHT22;31402;44.752;-0.374;2022-12-07T10:18:38;9.60;93.60
45693;DHT22;31402;44.752;-0.374;2022-12-07T10:21:38;9.60;94.00
45693;DHT22;31402;44.752;-0.374;2022-12-07T10:24:15;9.80;93.70
45693;DHT22;31402;44.752;-0.374;2022-12-07T10:29:22;9.90;93.10
45693;DHT22;31402;44.752;-0.374;2022-12-07T10:32:04;10.00;93.50
45693;DHT22;31402;44.752;-0.374;2022-12-07T10:34:38;10.00;93.00
45693;DHT22;31402;44.752;-0.374;2022-12-07T10:39:46;10.10;93.40
45693;DHT22;31402;44.752;-0.374;2022-12-07T10:44:50;10.30;93.20
45693;DHT22;31402;44.752;-0.374;2022-12-07T10:47:35;10.30;93.00
45693;DHT22;31402;44.752;-0.374;2022-12-07T10:58:37;10.60;92.70
45693;DHT22;31402;44.752;-0.374;2022-12-07T11:01:29;10.60;92.80
45693;DHT22;31402;44.752;-0.374;2022-12-07T11:07:27;10.90;92.20
45693;DHT22;31402;44.752;-0.374;2022-12-07T11:17:56;11.00;92.20
45693;DHT22;31402;44.752;-0.374;2022-12-07T11:31:12;11.00;92.00
45693;DHT22;31402;44.752;-0.374;2022-12-07T11:33:57;11.10;91.70
45693;DHT22;31402;44.752;-0.374;2022-12-07T11:36:58;11.10;92.20
45693;DHT22;31402;44.752;-0.374;2022-12-07T11:39:42;11.20;91.30
45693;DHT22;31402;44.752;-0.374;2022-12-07T11:42:21;11.20;91.30
45693;DHT22;31402;44.752;-0.374;2022-12-07T11:44:59;11.20;91.70
45693;DHT22;31402;44.752;-0.374;2022-12-07T11:47:45;11.10;91.80
45693;DHT22;31402;44.752;-0.374;2022-12-07T11:53:05;11.20;92.10
45693;DHT22;31402;44.752;-0.374;2022-12-07T12:06:43;11.60;91.10
45693;DHT22;31402;44.752;-0.374;2022-12-07T12:09:17;11.60;91.20
45693;DHT22;31402;44.752;-0.374;2022-12-07T12:23:00;11.60;90.30
45693;DHT22;31402;44.752;-0.374;2022-12-07T12:31:16;11.60;91.20
45693;DHT22;31402;44.752;-0.374;2022-12-07T12:34:00;11.60;91.50
45693;DHT22;31402;44.752;-0.374;2022-12-07T12:39:11;11.50;92.00
45693;DHT22;31402;44.752;-0.374;2022-12-07T12:46:51;11.80;91.00
45693;DHT22;31402;44.752;-0.374;2022-12-07T12:51:52;11.90;90.80
45693;DHT22;31402;44.752;-0.374;2022-12-07T12:59:34;11.80;90.90
45693;DHT22;31402;44.752;-0.374;2022-12-07T13:05:02;11.80;91.10
45693;DHT22;31402;44.752;-0.374;2022-12-07T13:07:49;11.70;91.20
45693;DHT22;31402;44.752;-0.374;2022-12-07T13:13:04;11.80;91.60
45693;DHT22;31402;44.752;-0.374;2022-12-07T13:15:38;11.70;92.20
45693;DHT22;31402;44.752;-0.374;2022-12-07T13:20:57;12.00;92.20
45693;DHT22;31402;44.752;-0.374;2022-12-07T13:29:15;12.00;91.60
45693;DHT22;31402;44.752;-0.374;2022-12-07T13:34:35;12.00;91.60
45693;DHT22;31402;44.752;-0.374;2022-12-07T13:37:04;11.80;92.00
45693;DHT22;31402;44.752;-0.374;2022-12-07T13:39:52;11.60;92.30
45693;DHT22;31402;44.752;-0.374;2022-12-07T13:42:34;11.60;93.20
45693;DHT22;31402;44.752;-0.374;2022-12-07T13:45:20;11.70;91.80
45693;DHT22;31402;44.752;-0.374;2022-12-07T13:48:14;11.60;92.40
45693;DHT22;31402;44.752;-0.374;2022-12-07T13:50:43;11.50;92.00
45693;DHT22;31402;44.752;-0.374;2022-12-07T13:53:12;11.50;92.80
45693;DHT22;31402;44.752;-0.374;2022-12-07T13:55:45;11.40;92.60
45693;DHT22;31402;44.752;-0.374;2022-12-07T13:58:11;11.40;92.80
45693;DHT22;31402;44.752;-0.374;2022-12-07T14:00:37;11.50;92.70
45693;DHT22;31402;44.752;-0.374;2022-12-07T14:05:44;11.70;92.00
45693;DHT22;31402;44.752;-0.374;2022-12-07T14:10:40;11.90;91.70
45693;DHT22;31402;44.752;-0.374;2022-12-07T14:13:36;11.90;91.50
45693;DHT22;31402;44.752;-0.374;2022-12-07T14:16:34;11.80;92.20
45693;DHT22;31402;44.752;-0.374;2022-12-07T14:19:03;11.80;91.60
45693;DHT22;31402;44.752;-0.374;2022-12-07T14:21:33;11.70;91.70
45693;DHT22;31402;44.752;-0.374;2022-12-07T14:24:12;11.70;91.60
45693;DHT22;31402;44.752;-0.374;2022-12-07T14:26:41;11.80;91.60
45693;DHT22;31402;44.752;-0.374;2022-12-07T14:31:52;11.60;91.50
45693;DHT22;31402;44.752;-0.374;2022-12-07T14:34:22;11.50;92.30
45693;DHT22;31402;44.752;-0.374;2022-12-07T14:36:48;11.60;91.50
45693;DHT22;31402;44.752;-0.374;2022-12-07T14:39:14;11.70;91.30
45693;DHT22;31402;44.752;-0.374;2022-12-07T14:41:40;11.70;91.40
45693;DHT22;31402;44.752;-0.374;2022-12-07T14:44:23;11.60;91.70
45693;DHT22;31402;44.752;-0.374;2022-12-07T14:46:49;11.70;91.60
45693;DHT22;31402;44.752;-0.374;2022-12-07T14:49:15;11.70;91.40
45693;DHT22;31402;44.752;-0.374;2022-12-07T14:51:42;11.60;91.70
45693;DHT22;31402;44.752;-0.374;2022-12-07T14:54:19;11.50;92.30
45693;DHT22;31402;44.752;-0.374;2022-12-07T14:56:46;11.30;92.00
45693;DHT22;31402;44.752;-0.374;2022-12-07T14:59:16;11.40;92.40
45693;DHT22;31402;44.752;-0.374;2022-12-07T15:01:41;11.30;92.40
45693;DHT22;31402;44.752;-0.374;2022-12-07T15:04:07;11.20;92.60
45693;DHT22;31402;44.752;-0.374;2022-12-07T15:06:33;11.10;92.60
45693;DHT22;31402;44.752;-0.374;2022-12-07T15:08:59;11.10;92.40
45693;DHT22;31402;44.752;-0.374;2022-12-07T15:11:24;11.00;93.00
45693;DHT22;31402;44.752;-0.374;2022-12-07T15:13:50;10.90;93.10
45693;DHT22;31402;44.752;-0.374;2022-12-07T15:16:37;11.00;93.20
45693;DHT22;31402;44.752;-0.374;2022-12-07T15:19:03;11.10;93.10
45693;DHT22;31402;44.752;-0.374;2022-12-07T15:21:29;10.90;92.60
45693;DHT22;31402;44.752;-0.374;2022-12-07T15:23:54;10.90;93.30
45693;DHT22;31402;44.752;-0.374;2022-12-07T15:26:20;10.80;92.90
45693;DHT22;31402;44.752;-0.374;2022-12-07T15:28:46;10.70;93.40
45693;DHT22;31402;44.752;-0.374;2022-12-07T15:31:16;10.70;93.10
45693;DHT22;31402;44.752;-0.374;2022-12-07T15:33:42;10.70;93.30
45693;DHT22;31402;44.752;-0.374;2022-12-07T15:36:08;10.70;93.50
45693;DHT22;31402;44.752;-0.374;2022-12-07T15:38:38;10.60;93.20
45693;DHT22;31402;44.752;-0.374;2022-12-07T15:41:04;10.50;93.40
45693;DHT22;31402;44.752;-0.374;2022-12-07T15:43:29;10.50;93.70
45693;DHT22;31402;44.752;-0.374;2022-12-07T15:46:14;10.60;93.40
45693;DHT22;31402;44.752;-0.374;2022-12-07T15:48:40;10.40;93.20
45693;DHT22;31402;44.752;-0.374;2022-12-07T15:51:06;10.40;93.40
45693;DHT22;31402;44.752;-0.374;2022-12-07T15:53:33;10.40;93.60
45693;DHT22;31402;44.752;-0.374;2022-12-07T15:55:59;10.30;93.60
45693;DHT22;31402;44.752;-0.374;2022-12-07T15:58:26;10.20;93.80
45693;DHT22;31402;44.752;-0.374;2022-12-07T16:00:52;10.20;94.00
45693;DHT22;31402;44.752;-0.374;2022-12-07T16:03:18;10.10;94.00
45693;DHT22;31402;44.752;-0.374;2022-12-07T16:05:53;10.10;94.30
45693;DHT22;31402;44.752;-0.374;2022-12-07T16:08:19;10.10;94.00
45693;DHT22;31402;44.752;-0.374;2022-12-07T16:10:45;10.10;94.10
45693;DHT22;31402;44.752;-0.374;2022-12-07T16:13:11;10.00;94.10
45693;DHT22;31402;44.752;-0.374;2022-12-07T16:15:39;10.00;94.20
45693;DHT22;31402;44.752;-0.374;2022-12-07T16:18:05;9.90;94.30
45693;DHT22;31402;44.752;-0.374;2022-12-07T16:20:31;10.00;94.20
45693;DHT22;31402;44.752;-0.374;2022-12-07T16:22:57;9.80;94.20
45693;DHT22;31402;44.752;-0.374;2022-12-07T16:25:23;9.80;94.20
45693;DHT22;31402;44.752;-0.374;2022-12-07T16:27:49;9.80;94.20
45693;DHT22;31402;44.752;-0.374;2022-12-07T16:30:16;9.70;94.40
45693;DHT22;31402;44.752;-0.374;2022-12-07T16:32:41;9.80;94.70
45693;DHT22;31402;44.752;-0.374;2022-12-07T16:35:08;9.80;94.40
45693;DHT22;31402;44.752;-0.374;2022-12-07T16:37:34;9.70;94.50
45693;DHT22;31402;44.752;-0.374;2022-12-07T16:40:00;9.80;94.80
45693;DHT22;31402;44.752;-0.374;2022-12-07T16:42:26;9.80;94.50
45693;DHT22;31402;44.752;-0.374;2022-12-07T16:44:52;9.80;94.60
45693;DHT22;31402;44.752;-0.374;2022-12-07T16:47:17;9.90;94.60
45693;DHT22;31402;44.752;-0.374;2022-12-07T16:49:43;10.00;95.00
45693;DHT22;31402;44.752;-0.374;2022-12-07T16:52:09;9.90;94.50
45693;DHT22;31402;44.752;-0.374;2022-12-07T16:54:36;9.90;94.30
45693;DHT22;31402;44.752;-0.374;2022-12-07T16:57:02;10.00;94.50
45693;DHT22;31402;44.752;-0.374;2022-12-07T16:59:27;10.00;94.20
45693;DHT22;31402;44.752;-0.374;2022-12-07T17:01:53;9.90;94.40
45693;DHT22;31402;44.752;-0.374;2022-12-07T17:04:19;9.80;94.50
45693;DHT22;31402;44.752;-0.374;2022-12-07T17:06:45;9.90;94.60
45693;DHT22;31402;44.752;-0.374;2022-12-07T17:09:10;9.90;94.70
45693;DHT22;31402;44.752;-0.374;2022-12-07T17:11:37;9.90;94.40
45693;DHT22;31402;44.752;-0.374;2022-12-07T17:14:03;9.80;94.50
45693;DHT22;31402;44.752;-0.374;2022-12-07T17:16:47;9.60;94.80
45693;DHT22;31402;44.752;-0.374;2022-12-07T17:19:15;9.60;94.90
45693;DHT22;31402;44.752;-0.374;2022-12-07T17:21:42;9.50;95.00
45693;DHT22;31402;44.752;-0.374;2022-12-07T17:24:10;9.60;95.00
45693;DHT22;31402;44.752;-0.374;2022-12-07T17:26:36;9.70;94.70
45693;DHT22;31402;44.752;-0.374;2022-12-07T17:29:06;9.60;94.70
45693;DHT22;31402;44.752;-0.374;2022-12-07T17:31:33;9.70;94.60
45693;DHT22;31402;44.752;-0.374;2022-12-07T17:33:59;9.60;95.00
45693;DHT22;31402;44.752;-0.374;2022-12-07T17:36:28;9.70;94.80
45693;DHT22;31402;44.752;-0.374;2022-12-07T17:38:55;9.80;94.70
45693;DHT22;31402;44.752;-0.374;2022-12-07T17:41:26;9.90;94.80
45693;DHT22;31402;44.752;-0.374;2022-12-07T17:44:16;9.90;94.70
45693;DHT22;31402;44.752;-0.374;2022-12-07T17:46:43;9.90;94.60
45693;DHT22;31402;44.752;-0.374;2022-12-07T17:49:09;9.80;94.70
45693;DHT22;31402;44.752;-0.374;2022-12-07T17:51:35;9.90;94.90
45693;DHT22;31402;44.752;-0.374;2022-12-07T17:54:19;9.90;94.80
45693;DHT22;31402;44.752;-0.374;2022-12-07T17:56:46;9.90;94.60
45693;DHT22;31402;44.752;-0.374;2022-12-07T17:59:12;9.90;94.60
45693;DHT22;31402;44.752;-0.374;2022-12-07T18:01:38;9.90;94.80
45693;DHT22;31402;44.752;-0.374;2022-12-07T18:04:04;9.90;94.80
45693;DHT22;31402;44.752;-0.374;2022-12-07T18:06:30;9.90;94.60
45693;DHT22;31402;44.752;-0.374;2022-12-07T18:08:57;9.90;94.60
45693;DHT22;31402;44.752;-0.374;2022-12-07T18:11:23;9.90;94.70
45693;DHT22;31402;44.752;-0.374;2022-12-07T18:13:49;9.80;94.50